createdAt,value
2019-04-05T00:00:42.971Z,64.50
2019-04-05T00:03:12.343Z,74.40
2019-04-05T00:05:41.741Z,74.43
2019-04-05T00:08:11.467Z,71.07
2019-04-05T00:10:40.818Z,70.83
2019-04-05T00:13:10.279Z,68.67
2019-04-05T00:15:39.659Z,71.30
2019-04-05T00:18:09.066Z,65.47
2019-04-05T00:20:38.431Z,72.33
2019-04-05T00:23:07.786Z,68.97
2019-04-05T00:25:37.219Z,62.77
2019-04-05T00:28:06.641Z,69.87
2019-04-05T00:30:35.996Z,71.53
2019-04-05T00:33:05.443Z,66.27
2019-04-05T00:35:34.867Z,65.10
2019-04-05T00:38:04.362Z,66.77
2019-04-05T00:40:33.712Z,64.37
2019-04-05T00:43:03.090Z,66.50
2019-04-05T00:45:32.465Z,67.67
2019-04-05T00:48:01.895Z,63.43
2019-04-05T00:50:31.263Z,68.60
2019-04-05T00:53:00.647Z,72.20
2019-04-05T00:55:30.000Z,68.27
2019-04-05T00:57:59.428Z,70.13
2019-04-05T01:00:28.891Z,67.90
2019-04-05T01:02:58.331Z,76.07
2019-04-05T01:05:27.801Z,81.20
2019-04-05T01:07:57.233Z,84.80
2019-04-05T01:10:26.628Z,88.03
2019-04-05T01:12:56.529Z,91.83
2019-04-05T01:15:25.935Z,85.50
2019-04-05T01:17:55.661Z,83.03
2019-04-05T01:20:28.080Z,79.50
2019-04-05T01:22:59.217Z,85.13
2019-04-05T01:25:28.898Z,84.03
2019-04-05T01:27:58.848Z,78.87
2019-04-05T01:30:28.287Z,81.33
2019-04-05T01:32:57.734Z,74.00
2019-04-05T01:35:27.091Z,73.97
2019-04-05T01:37:56.696Z,75.13
2019-04-05T01:40:29.132Z,71.73
2019-04-05T01:42:58.729Z,72.17
2019-04-05T01:45:28.085Z,73.07
2019-04-05T01:47:57.492Z,83.30
2019-04-05T01:50:27.095Z,75.93
2019-04-05T01:52:56.570Z,82.37
2019-04-05T01:55:26.012Z,82.23
2019-04-05T01:57:55.376Z,82.10
2019-04-05T02:00:24.749Z,84.57
2019-04-05T02:02:54.379Z,87.47
2019-04-05T02:05:23.989Z,85.77
2019-04-05T02:07:53.532Z,83.10
2019-04-05T02:10:23.075Z,82.13
2019-04-05T02:12:52.536Z,84.87
2019-04-05T02:15:27.615Z,84.63
2019-04-05T02:17:57.479Z,94.10
2019-04-05T02:20:27.303Z,88.33
2019-04-05T02:22:56.850Z,91.20
2019-04-05T02:25:26.457Z,90.30
2019-04-05T02:27:56.243Z,90.07
2019-04-05T02:30:26.404Z,85.97
2019-04-05T02:32:55.940Z,93.83
2019-04-05T02:35:25.371Z,82.80
2019-04-05T02:37:54.748Z,90.83
2019-04-05T02:40:26.728Z,95.43
2019-04-05T02:42:59.504Z,91.13
2019-04-05T02:45:32.307Z,91.30
2019-04-05T02:48:04.809Z,84.83
2019-04-05T02:50:37.260Z,83.37
2019-04-05T02:53:09.773Z,86.57
2019-04-05T02:55:41.921Z,85.97
2019-04-05T02:58:12.718Z,84.97
2019-04-05T03:00:43.521Z,88.10
2019-04-05T03:03:14.667Z,80.20
2019-04-05T03:05:45.711Z,78.07
2019-04-05T03:08:16.196Z,76.53
2019-04-05T03:10:51.218Z,81.23
2019-04-05T03:13:24.348Z,76.23
2019-04-05T03:15:56.241Z,79.83
2019-04-05T03:18:28.351Z,80.50
2019-04-05T03:21:00.777Z,79.37
2019-04-05T03:23:32.727Z,84.20
2019-04-05T03:26:04.872Z,76.47
2019-04-05T03:28:36.152Z,78.73
2019-04-05T03:31:06.263Z,73.83
2019-04-05T03:33:37.993Z,74.83
2019-04-05T03:36:08.245Z,81.60
2019-04-05T03:38:38.240Z,75.93
2019-04-05T03:41:07.887Z,71.87
2019-04-05T03:43:37.479Z,77.23
2019-04-05T03:46:07.015Z,70.63
2019-04-05T03:48:36.539Z,68.03
2019-04-05T03:51:06.240Z,70.43
2019-04-05T03:53:35.842Z,67.90
2019-04-05T03:56:05.452Z,74.87
2019-04-05T03:58:35.132Z,76.83
2019-04-05T04:01:04.593Z,82.73
2019-04-05T04:03:33.956Z,82.70
2019-04-05T04:06:03.478Z,87.70
2019-04-05T04:08:33.004Z,88.50
2019-04-05T04:11:02.727Z,79.30
2019-04-05T04:13:32.755Z,86.37
2019-04-05T04:16:02.346Z,96.03
2019-04-05T04:18:32.456Z,93.70
2019-04-05T04:21:25.649Z,98.87
2019-04-05T04:23:55.273Z,100.90
2019-04-05T04:26:24.769Z,104.50
2019-04-05T04:28:54.387Z,101.20
2019-04-05T04:31:23.860Z,108.13
2019-04-05T04:33:53.629Z,104.97
2019-04-05T04:39:30.490Z,86.40
2019-04-05T04:42:02.037Z,97.73
2019-04-05T04:44:31.876Z,89.43
2019-04-05T04:47:02.120Z,88.97
2019-04-05T04:49:32.630Z,93.30
2019-04-05T04:52:03.035Z,86.70
2019-04-05T04:54:33.301Z,100.63
2019-04-05T04:57:03.537Z,93.10
2019-04-05T04:59:33.312Z,102.30
2019-04-05T05:02:03.185Z,99.77
2019-04-05T05:04:33.607Z,102.77
2019-04-05T05:07:03.814Z,106.93
2019-04-05T05:09:33.572Z,108.10
2019-04-05T05:12:03.636Z,98.23
2019-04-05T05:14:33.425Z,98.03
2019-04-05T05:17:03.774Z,96.53
2019-04-05T05:19:33.740Z,95.67
2019-04-05T05:22:03.712Z,94.67
2019-04-05T05:24:33.993Z,107.53
2019-04-05T05:27:04.415Z,104.93
2019-04-05T05:29:34.367Z,98.77
2019-04-05T05:32:04.609Z,96.77
2019-04-05T05:34:34.586Z,95.13
2019-04-05T05:37:04.638Z,98.53
2019-04-05T05:39:34.376Z,103.03
2019-04-05T05:42:04.525Z,103.27
2019-04-05T05:44:34.417Z,104.70
2019-04-05T05:47:04.423Z,106.70
2019-04-05T05:49:34.122Z,107.60
2019-04-05T05:52:04.084Z,115.03
2019-04-05T05:54:33.964Z,105.50
2019-04-05T05:57:03.961Z,113.13
2019-04-05T05:59:33.946Z,100.03
2019-04-05T06:02:07.058Z,100.17
2019-04-05T06:04:35.831Z,95.13
2019-04-05T06:10:40.098Z,103.40
2019-04-05T06:13:13.240Z,102.87
2019-04-05T06:15:46.577Z,101.53
2019-04-05T06:18:19.619Z,93.63
2019-04-05T06:20:50.471Z,98.50
2019-04-05T06:25:53.289Z,92.67
2019-04-05T06:28:24.008Z,93.70
2019-04-05T06:30:55.273Z,91.10
2019-04-05T06:33:31.693Z,91.83
2019-04-05T06:35:39.483Z,98.47
2019-04-05T06:35:59.379Z,91.67
2019-04-05T06:38:33.390Z,92.07
2019-04-05T06:41:04.765Z,92.50
2019-04-05T06:43:34.549Z,91.50
2019-04-05T06:46:04.181Z,90.57
2019-04-05T06:48:34.596Z,80.70
2019-04-05T06:51:04.403Z,88.90
2019-04-05T06:53:34.278Z,87.10
2019-04-05T06:56:04.163Z,80.80
2019-04-05T06:58:34.140Z,79.67
2019-04-05T07:01:05.356Z,89.77
2019-04-05T07:03:35.261Z,84.47
2019-04-05T07:06:05.279Z,85.00
2019-04-05T07:08:35.436Z,87.87
2019-04-05T07:11:05.478Z,79.60
2019-04-05T07:13:35.632Z,82.10
2019-04-05T07:16:05.953Z,86.10
2019-04-05T07:18:36.435Z,84.83
2019-04-05T07:21:06.904Z,88.77
2019-04-05T07:23:37.116Z,80.83
2019-04-05T07:26:07.070Z,83.27
2019-04-05T07:28:37.776Z,86.13
2019-04-05T07:31:09.371Z,85.80
2019-04-05T07:33:39.496Z,79.77
2019-04-05T07:36:09.758Z,77.33
2019-04-05T07:38:39.752Z,76.43
2019-04-05T07:41:09.896Z,75.67
2019-04-05T07:43:39.978Z,78.77
2019-04-05T07:46:10.254Z,72.03
2019-04-05T07:48:45.062Z,77.80
2019-04-05T07:51:15.372Z,80.20
2019-04-05T07:53:45.220Z,77.53
2019-04-05T07:56:15.297Z,75.63
2019-04-05T07:58:45.199Z,78.97
2019-04-05T08:01:15.365Z,77.03
2019-04-05T08:03:45.568Z,72.50
2019-04-05T08:06:16.325Z,73.23
2019-04-05T08:08:49.210Z,79.87
2019-04-05T08:11:20.588Z,70.53
2019-04-05T08:13:53.553Z,72.50
2019-04-05T08:16:31.708Z,72.67
2019-04-05T08:19:03.404Z,80.97
2019-04-05T08:21:34.169Z,71.33
2019-04-05T08:24:06.133Z,71.37
2019-04-05T08:26:37.433Z,79.47
2019-04-05T09:05:09.863Z,69.77
2019-04-05T09:07:39.848Z,69.97
2019-04-05T09:10:09.218Z,71.27
2019-04-05T09:12:38.589Z,77.87
2019-04-05T09:15:08.075Z,76.03
2019-04-05T09:17:37.423Z,71.73
2019-04-05T09:20:07.025Z,75.90
2019-04-05T09:22:36.380Z,76.13
2019-04-05T09:25:35.398Z,76.63
2019-04-05T09:28:04.744Z,69.50
2019-04-05T09:30:34.085Z,72.20
2019-04-05T09:33:03.438Z,73.93
2019-04-05T09:35:32.786Z,68.23
2019-04-05T09:38:02.126Z,65.50
2019-04-05T09:40:31.468Z,71.23
2019-04-05T09:43:00.809Z,66.90
2019-04-05T09:45:30.137Z,67.87
2019-04-05T09:47:59.478Z,69.60
2019-04-05T09:50:28.813Z,67.17
2019-04-05T09:52:58.145Z,70.10
2019-04-05T09:55:27.489Z,65.50
2019-04-05T09:57:56.831Z,65.27
2019-04-05T10:00:28.038Z,66.77
2019-04-05T10:02:57.370Z,67.07
2019-04-05T10:05:26.714Z,68.67
2019-04-05T10:07:56.083Z,61.37
2019-04-05T10:10:25.401Z,67.80
2019-04-05T10:12:54.737Z,64.67
2019-04-05T10:15:24.087Z,73.10
2019-04-05T10:17:53.426Z,69.50
2019-04-05T10:20:22.761Z,73.70
2019-04-05T10:22:52.138Z,73.43
2019-04-05T10:25:21.457Z,76.70
2019-04-05T10:27:50.800Z,67.47
2019-04-05T10:30:20.389Z,65.83
2019-04-05T10:32:49.724Z,64.77
2019-04-05T10:35:19.067Z,60.50
2019-04-05T10:37:48.406Z,64.23
2019-04-05T10:40:17.893Z,61.77
2019-04-05T10:42:47.217Z,61.87
2019-04-05T10:45:16.801Z,60.90
2019-04-05T10:47:46.130Z,64.03
2019-04-05T10:50:15.701Z,66.30
2019-04-05T10:52:45.044Z,64.27
2019-04-05T10:55:14.545Z,58.43
2019-04-05T10:57:43.894Z,65.70
2019-04-05T11:00:16.261Z,64.03
2019-04-05T11:02:45.587Z,59.80
2019-04-05T11:05:15.168Z,61.40
2019-04-05T11:07:44.504Z,62.30
2019-04-05T11:10:14.786Z,63.00
2019-04-05T11:12:44.133Z,59.90
2019-04-05T11:15:15.213Z,69.77
2019-04-05T11:17:44.734Z,68.93
2019-04-05T11:20:22.856Z,71.17
2019-04-05T11:22:47.004Z,59.97
2019-04-05T11:25:20.467Z,65.53
2019-04-05T11:27:49.030Z,64.07
2019-04-05T11:30:21.438Z,62.43
2019-04-05T11:32:50.778Z,63.00
2019-04-05T11:35:20.117Z,64.80
2019-04-05T11:37:50.665Z,65.43
2019-04-05T11:40:20.282Z,67.60
2019-04-05T11:42:50.149Z,64.97
2019-04-05T11:45:19.499Z,65.87
2019-04-05T11:47:50.281Z,68.70
2019-04-05T11:50:19.677Z,65.80
2019-04-05T11:52:49.005Z,68.87
2019-04-05T11:55:18.904Z,63.93
2019-04-05T11:57:48.257Z,63.47
2019-04-05T12:00:37.391Z,69.00
2019-04-05T12:03:14.295Z,70.30
2019-04-05T12:05:43.658Z,69.17
2019-04-05T12:08:12.997Z,64.37
2019-04-05T12:10:42.338Z,70.97
2019-04-05T12:13:11.743Z,74.50
2019-04-05T12:15:41.073Z,60.70
2019-04-05T12:18:10.418Z,60.20
2019-04-05T12:20:49.216Z,64.30
2019-04-05T12:23:10.860Z,59.37
2019-04-05T12:25:40.193Z,59.70
2019-04-05T12:28:10.759Z,59.10
2019-04-05T12:30:41.222Z,61.50
2019-04-05T12:33:14.275Z,61.53
2019-04-05T12:35:41.782Z,58.50
2019-04-05T12:38:12.754Z,57.47
2019-04-05T12:40:42.090Z,58.07
2019-04-05T12:43:13.630Z,58.87
2019-04-05T12:45:44.311Z,58.87
2019-04-05T12:48:13.733Z,53.27
2019-04-05T12:50:45.011Z,52.40
2019-04-05T12:53:15.059Z,56.03
2019-04-05T12:55:44.369Z,53.37
2019-04-05T12:58:13.723Z,53.40
2019-04-05T13:00:43.058Z,58.30
2019-04-05T13:03:12.392Z,56.00
2019-04-05T13:05:41.725Z,55.77
2019-04-05T13:08:11.066Z,54.70
2019-04-05T13:10:40.411Z,53.00
2019-04-05T13:13:09.741Z,55.40
2019-04-05T13:15:40.297Z,56.70
2019-04-05T13:18:10.005Z,54.20
2019-04-05T13:20:39.337Z,56.73
2019-04-05T13:23:08.682Z,57.47
2019-04-05T13:25:38.827Z,53.60
2019-04-05T13:28:13.624Z,53.60
2019-04-05T13:30:40.081Z,53.97
2019-04-05T13:33:09.414Z,61.30
2019-04-05T13:35:38.758Z,54.53
2019-04-05T13:38:08.088Z,62.13
2019-04-05T13:40:37.447Z,57.00
2019-04-05T13:43:06.793Z,59.30
2019-04-05T13:45:36.126Z,59.37
2019-04-05T13:48:08.477Z,63.67
2019-04-05T13:50:36.498Z,57.70
2019-04-05T13:53:05.902Z,57.97
2019-04-05T13:55:35.410Z,65.87
2019-04-05T13:58:04.848Z,59.83
2019-04-05T14:00:34.182Z,60.87
2019-04-05T14:03:03.506Z,60.40
2019-04-05T14:05:32.841Z,59.27
2019-04-05T14:08:10.360Z,61.80
2019-04-05T14:10:33.223Z,60.93
2019-04-05T14:13:02.729Z,64.93
2019-04-05T14:15:32.138Z,66.50
2019-04-05T14:18:01.473Z,61.53
2019-04-05T14:20:30.821Z,61.43
2019-04-05T14:23:00.158Z,64.27
2019-04-05T14:25:30.192Z,61.67
2019-04-05T14:27:59.718Z,64.77
2019-04-05T14:30:32.429Z,58.40
2019-04-05T14:33:00.089Z,61.47
2019-04-05T14:35:29.434Z,57.53
2019-04-05T14:37:58.770Z,60.37
2019-04-05T14:40:29.409Z,59.67
2019-04-05T14:42:59.137Z,61.07
2019-04-05T14:45:28.546Z,57.47
2019-04-05T14:47:58.609Z,64.17
2019-04-05T14:50:28.796Z,62.00
2019-04-05T14:53:00.755Z,67.80
2019-04-05T14:55:29.944Z,61.57
2019-04-05T14:57:59.841Z,63.60
2019-04-05T15:00:29.360Z,65.43
2019-04-05T15:02:58.699Z,66.93
2019-04-05T15:05:28.034Z,67.13
2019-04-05T15:07:57.369Z,65.20
2019-04-05T15:10:26.713Z,66.03
2019-04-05T15:12:56.050Z,71.57
2019-04-05T15:15:25.397Z,74.30
2019-04-05T15:17:54.727Z,69.03
2019-04-05T15:20:24.073Z,71.77
2019-04-05T15:22:53.487Z,67.37
2019-04-05T15:25:22.832Z,68.37
2019-04-05T15:27:55.389Z,69.27
2019-04-05T15:30:25.477Z,68.73
2019-04-05T15:32:57.771Z,68.63
2019-04-05T15:35:24.517Z,73.97
2019-04-05T15:37:53.758Z,72.50
2019-04-05T15:40:23.101Z,71.93
2019-04-05T15:42:52.442Z,70.27
2019-04-05T15:45:21.850Z,73.20
2019-04-05T15:47:52.638Z,74.90
2019-04-05T15:50:22.106Z,73.20
2019-04-05T15:52:51.481Z,70.37
2019-04-05T15:55:20.798Z,70.87
2019-04-05T15:57:50.138Z,72.03
2019-04-05T16:00:34.336Z,69.83
2019-04-05T16:03:03.706Z,71.20
2019-04-05T16:05:33.046Z,68.17
2019-04-05T16:08:02.385Z,67.03
2019-04-05T16:10:31.790Z,70.47
2019-04-05T16:13:01.201Z,67.93
2019-04-05T16:15:30.601Z,76.17
2019-04-05T16:17:59.621Z,76.43
2019-04-05T16:20:28.538Z,77.40
2019-04-05T16:22:57.790Z,74.47
2019-04-05T16:25:27.142Z,80.73
2019-04-05T16:27:56.130Z,74.80
2019-04-05T16:30:25.064Z,76.57
2019-04-05T16:32:53.970Z,78.10
2019-04-05T16:35:22.893Z,77.10
2019-04-05T16:37:51.811Z,76.80
2019-04-05T16:40:20.807Z,77.60
2019-04-05T16:43:01.661Z,79.30
2019-04-05T16:45:20.409Z,78.80
2019-04-05T16:47:49.360Z,80.33
2019-04-05T16:50:21.243Z,77.93
2019-04-05T16:52:49.085Z,77.33
2019-04-05T16:55:17.995Z,79.90
2019-04-05T16:57:47.255Z,79.47
2019-04-05T17:00:16.529Z,78.23
2019-04-05T17:02:45.778Z,83.93
2019-04-05T17:05:15.685Z,79.77
2019-04-05T17:07:45.040Z,75.70
2019-04-05T17:10:14.506Z,79.87
2019-04-05T17:12:43.901Z,79.77
2019-04-05T17:15:13.581Z,79.17
2019-04-05T17:17:42.921Z,79.27
2019-04-05T17:20:12.394Z,77.30
2019-04-05T17:22:41.746Z,89.40
2019-04-05T17:25:11.159Z,90.33
2019-04-05T17:27:40.493Z,82.83
2019-04-05T17:30:10.386Z,86.87
2019-04-05T17:32:39.718Z,88.10
2019-04-05T17:35:08.920Z,87.10
2019-04-05T17:37:38.638Z,88.77
2019-04-05T17:40:08.867Z,88.23
2019-04-05T17:42:38.233Z,90.93
2019-04-05T17:45:08.978Z,80.97
2019-04-05T17:47:38.327Z,85.57
2019-04-05T17:50:10.600Z,84.93
2019-04-05T17:52:38.901Z,88.47
2019-04-05T17:55:08.382Z,80.20
2019-04-05T17:57:37.725Z,92.33
2019-04-05T18:00:09.633Z,86.97
2019-04-05T18:02:38.974Z,90.27
2019-04-05T18:05:08.375Z,86.83
2019-04-05T18:07:37.727Z,89.67
2019-04-05T18:10:07.306Z,92.67
2019-04-05T18:12:36.641Z,95.70
2019-04-05T18:15:06.271Z,91.05
2019-04-05T18:17:35.630Z,91.27
2019-04-05T18:20:09.600Z,91.23
2019-04-05T18:22:38.090Z,96.40
2019-04-05T18:25:07.494Z,91.30
2019-04-05T18:27:36.834Z,102.07
2019-04-05T18:30:07.103Z,93.97
2019-04-05T18:32:36.441Z,98.80
2019-04-05T18:35:06.574Z,101.30
2019-04-05T18:37:35.914Z,96.90
2019-04-05T18:40:07.514Z,98.50
2019-04-05T18:42:36.869Z,95.07
2019-04-05T18:45:08.158Z,96.47
2019-04-05T18:47:37.510Z,96.10
2019-04-05T18:50:07.494Z,101.23
2019-04-05T18:52:36.842Z,105.17
2019-04-05T18:55:07.071Z,102.30
2019-04-05T18:57:36.511Z,98.63
2019-04-05T19:00:08.145Z,99.42
2019-04-05T19:02:37.588Z,97.80
2019-04-05T19:05:07.096Z,106.17
2019-04-05T19:07:36.430Z,104.27
2019-04-05T19:10:10.120Z,107.87
2019-04-05T19:12:39.549Z,106.80
2019-04-05T19:15:09.278Z,109.30
2019-04-05T19:17:38.660Z,103.23
2019-04-05T19:20:08.082Z,107.40
2019-04-05T19:22:37.477Z,106.77
2019-04-05T19:25:07.611Z,111.03
2019-04-05T19:27:36.955Z,106.80
2019-04-05T19:50:14.371Z,106.73
2019-04-05T19:52:43.618Z,103.33
2019-04-05T19:55:13.062Z,101.37
2019-04-05T19:57:42.062Z,100.30
2019-04-05T20:00:11.211Z,104.33
2019-04-05T20:02:40.140Z,91.53
2019-04-05T20:05:09.053Z,91.90
2019-04-05T20:07:37.967Z,95.37
2019-04-05T20:10:07.459Z,98.83
2019-04-05T20:12:36.474Z,87.87
2019-04-05T20:15:06.934Z,97.15
2019-04-05T20:17:36.105Z,84.23
2019-04-05T20:20:06.333Z,82.33
2019-04-05T20:22:35.244Z,91.87
2019-04-05T20:25:05.472Z,81.93
2019-04-05T20:27:34.398Z,77.30
2019-04-05T20:30:05.996Z,83.50
2019-04-05T20:32:35.008Z,83.13
2019-04-05T20:35:04.804Z,87.57
2019-04-05T20:37:33.801Z,84.10
2019-04-05T20:40:03.285Z,92.17
2019-04-05T20:42:32.186Z,80.90
2019-04-05T20:45:01.122Z,88.00
2019-04-05T20:47:30.035Z,86.30
2019-04-05T20:49:58.950Z,83.23
2019-04-05T20:52:27.874Z,75.90
2019-04-05T20:54:56.835Z,79.07
2019-04-05T20:57:25.772Z,76.47
2019-04-05T20:59:55.032Z,86.60
2019-04-05T21:02:24.032Z,88.63
2019-04-05T21:04:52.951Z,85.10
2019-04-05T21:07:21.866Z,87.33
2019-04-05T21:09:51.200Z,83.47
2019-04-05T21:12:20.199Z,78.23
2019-04-05T21:14:49.109Z,84.80
2019-04-05T21:17:18.034Z,81.33
2019-04-05T21:19:47.277Z,79.10
2019-04-05T21:22:16.298Z,80.93
2019-04-05T21:24:45.206Z,82.90
2019-04-05T21:27:14.130Z,80.63
2019-04-05T21:29:43.038Z,82.57
2019-04-05T21:32:11.945Z,91.20
2019-04-05T21:34:41.211Z,82.63
2019-04-05T21:37:10.214Z,77.53
2019-04-05T21:39:39.131Z,82.33
2019-04-05T21:42:08.051Z,76.37
2019-04-05T21:44:38.361Z,87.77
2019-04-05T21:47:07.806Z,75.63
2019-04-05T21:49:36.812Z,83.07
2019-04-05T21:52:05.720Z,75.43
2019-04-05T21:54:34.681Z,76.77
2019-04-05T21:57:03.657Z,75.40
2019-04-05T21:59:32.577Z,76.60
2019-04-05T22:02:01.857Z,73.37
2019-04-05T22:04:30.858Z,70.70
2019-04-05T22:07:00.102Z,69.57
2019-04-05T22:09:29.106Z,70.37
2019-04-05T22:11:58.033Z,68.17
2019-04-05T22:14:27.287Z,76.03
2019-04-05T22:16:56.289Z,80.10
2019-04-05T22:19:25.549Z,68.20
2019-04-05T22:21:54.874Z,66.57
2019-04-05T22:24:24.213Z,71.03
2019-04-05T22:26:53.545Z,63.43
2019-04-05T22:29:22.889Z,67.23
2019-04-05T22:31:52.230Z,70.73
2019-04-05T22:34:21.575Z,71.70
2019-04-05T22:36:50.592Z,62.27
2019-04-05T22:39:21.549Z,65.33
2019-04-05T22:41:50.666Z,57.33
2019-04-05T22:44:19.938Z,57.33
2019-04-05T22:46:48.940Z,57.40
2019-04-05T22:49:17.846Z,56.67
2019-04-05T22:51:46.776Z,57.07
2019-04-05T22:54:15.698Z,65.27
2019-04-05T22:56:44.958Z,56.23
2019-04-05T22:59:13.954Z,60.10
2019-04-05T23:01:42.877Z,61.93
2019-04-05T23:04:12.114Z,61.37
2019-04-05T23:06:41.118Z,62.60
2019-04-05T23:09:10.042Z,59.47
2019-04-05T23:11:39.286Z,58.63
2019-04-05T23:14:08.291Z,59.87
2019-04-05T23:16:37.597Z,70.33
2019-04-05T23:19:06.943Z,68.23
2019-04-05T23:21:36.268Z,65.93
2019-04-05T23:24:05.607Z,60.67
2019-04-05T23:26:34.950Z,59.20
2019-04-05T23:29:03.945Z,60.03
2019-04-05T23:31:32.932Z,61.37
2019-04-05T23:34:01.839Z,57.43
2019-04-05T23:36:30.753Z,62.83
2019-04-05T23:38:59.993Z,63.60
2019-04-05T23:41:28.998Z,70.97
2019-04-05T23:43:57.909Z,63.43
2019-04-05T23:46:26.820Z,61.07
2019-04-05T23:48:55.734Z,56.50
2019-04-05T23:51:24.657Z,57.67
2019-04-05T23:53:53.561Z,56.50
2019-04-05T23:56:22.480Z,53.57
2019-04-05T23:58:51.397Z,53.67
